Time;durP1;ratioP1;P1;durP2;ratioP2;P2;SDS_P1;SDS_P2;PMS_P1;PMS_P2;Temp;Humidity;BMP_temperature;BMP_pressure;BME280_temperature;BME280_humidity;BME280_pressure;Samples;Min_cycle;Max_cycle;Signal;HPM_P1;HPM_P2
2022/03/02 00:02:06;;;;;;;56.45;31.83;;;;;;;;;;4820856;29;20150;-62
2022/03/02 00:04:32;;;;;;;53.88;32.20;;;;;;;;;;4834312;29;20050;-63
2022/03/02 00:06:58;;;;;;;55.05;31.88;;;;;;;;;;4822281;29;20069;-62
2022/03/02 00:09:24;;;;;;;51.75;30.40;;;;;;;;;;4808236;29;20054;-62
2022/03/02 00:11:50;;;;;;;50.72;31.58;;;;;;;;;;4824281;29;20148;-63
2022/03/02 00:14:16;;;;;;;52.45;31.67;;;;;;;;;;4824203;29;20053;-62
2022/03/02 00:16:42;;;;;;;57.45;34.70;;;;;;;;;;4824448;29;20103;-63
2022/03/02 00:19:09;;;;;;;54.53;33.45;;;;;;;;;;4838394;29;20448;-63
2022/03/02 00:21:35;;;;;;;;;;;;;;;;;;4824695;29;20054;-62
2022/03/02 00:24:03;;;;;;;55.47;31.55;;;;;;;;;;4824302;29;19975;-62
2022/03/02 00:26:30;;;;;;;54.85;32.28;;;;;;;;;;4823716;29;20153;-64
2022/03/02 00:28:56;;;;;;;52.38;31.10;;;;;;;;;;4837921;29;20065;-62
2022/03/02 00:31:22;;;;;;;53.58;32.72;;;;;;;;;;4824202;29;20054;-62
2022/03/02 00:33:48;;;;;;;57.50;33.72;;;;;;;;;;4823863;29;20137;-62
2022/03/02 00:36:15;;;;;;;55.05;33.80;;;;;;;;;;4823945;29;20097;-63
2022/03/02 00:38:41;;;;;;;57.28;31.67;;;;;;;;;;4823720;29;20101;-63
2022/03/02 00:41:07;;;;;;;52.33;32.22;;;;;;;;;;4823954;29;20137;-62
2022/03/02 00:43:33;;;;;;;57.63;33.78;;;;;;;;;;4837569;29;20062;-64
2022/03/02 00:45:59;;;;;;;57.72;33.55;;;;;;;;;;4823217;29;20488;-63
2022/03/02 00:48:25;;;;;;;54.55;34.45;;;;;;;;;;4823766;29;20138;-63
2022/03/02 00:50:51;;;;;;;54.03;32.05;;;;;;;;;;4823175;29;20050;-62
2022/03/02 00:53:18;;;;;;;54.65;33.42;;;;;;;;;;4823251;29;20459;-63
2022/03/02 00:55:44;;;;;;;58.42;34.22;;;;;;;;;;4823027;29;20493;-63
2022/03/02 00:58:10;;;;;;;55.80;33.42;;;;;;;;;;4823408;29;20121;-64
2022/03/02 01:00:36;;;;;;;57.83;35.75;;;;;;;;;;4823383;29;20073;-64
2022/03/02 01:03:02;;;;;;;60.97;35.20;;;;;;;;;;4823747;29;20050;-64
2022/03/02 01:05:28;;;;;;;57.17;34.65;;;;;;;;;;4823593;29;20054;-63
2022/03/02 01:07:55;;;;;;;58.88;35.22;;;;;;;;;;4837523;29;20046;-63
2022/03/02 01:10:21;;;;;;;57.58;34.60;;;;;;;;;;4823554;29;20062;-64
2022/03/02 01:12:47;;;;;;;61.45;36.40;;;;;;;;;;4823289;29;20136;-63
2022/03/02 01:15:14;;;;;;;57.08;35.03;;;;;;;;;;4823177;29;20042;-63
2022/03/02 01:17:40;;;;;;;61.08;35.03;;;;;;;;;;4823093;29;20454;-63
2022/03/02 01:20:07;;;;;;;60.33;36.03;;;;;;;;;;4836018;29;20410;-63
2022/03/02 01:22:34;;;;;;;60.22;35.35;;;;;;;;;;4823559;29;20198;-63
2022/03/02 01:25:00;;;;;;;;;;;;;;;;;;4823365;29;20129;-64
2022/03/02 01:27:26;;;;;;;61.30;36.72;;;;;;;;;;4821743;29;20341;-63
2022/03/02 01:29:52;;;;;;;59.63;36.38;;;;;;;;;;4836291;29;20408;-63
2022/03/02 01:32:19;;;;;;;61.00;35.97;;;;;;;;;;4836438;29;20444;-63
2022/03/02 01:34:45;;;;;;;;;;;;;;;;;;4823194;29;20165;-63
2022/03/02 01:37:11;;;;;;;65.13;37.78;;;;;;;;;;4822868;29;19959;-63
2022/03/02 01:39:37;;;;;;;59.97;36.83;;;;;;;;;;4823124;29;20107;-65
2022/03/02 01:42:05;;;;;;;59.28;36.65;;;;;;;;;;4822426;29;20095;-63
2022/03/02 01:44:32;;;;;;;63.40;38.08;;;;;;;;;;4822199;29;20379;-63
2022/03/02 01:46:58;;;;;;;61.40;37.78;;;;;;;;;;4822766;29;20140;-63
2022/03/02 01:49:24;;;;;;;61.25;35.97;;;;;;;;;;4822745;29;20051;-63
2022/03/02 01:51:50;;;;;;;62.97;36.55;;;;;;;;;;4822864;29;20114;-63
2022/03/02 01:54:16;;;;;;;60.88;37.83;;;;;;;;;;4822814;29;20046;-64
2022/03/02 01:56:42;;;;;;;61.17;37.90;;;;;;;;;;4821735;29;20499;-63
2022/03/02 01:59:08;;;;;;;62.88;38.35;;;;;;;;;;4822573;29;20111;-63
2022/03/02 02:01:34;;;;;;;61.55;37.58;;;;;;;;;;4822247;29;20122;-65
2022/03/02 02:04:01;;;;;;;63.13;38.60;;;;;;;;;;4822250;29;20089;-64
2022/03/02 02:06:27;;;;;;;;;;;;;;;;;;4822652;29;20409;-63
2022/03/02 02:08:53;;;;;;;60.35;37.20;;;;;;;;;;4822345;29;20027;-63
2022/03/02 02:11:19;;;;;;;61.63;36.72;;;;;;;;;;4822294;29;20050;-63
2022/03/02 02:13:45;;;;;;;66.20;39.47;;;;;;;;;;4822398;29;20054;-63
2022/03/02 02:16:13;;;;;;;62.28;39.55;;;;;;;;;;4822140;29;20085;-63
2022/03/02 02:18:39;;;;;;;68.45;39.22;;;;;;;;;;4822441;29;20136;-63
2022/03/02 02:21:05;;;;;;;;;;;;;;;;;;4836366;29;20054;-63
2022/03/02 02:23:31;;;;;;;64.00;38.33;;;;;;;;;;4822209;29;19925;-63
2022/03/02 02:25:58;;;;;;;65.25;40.58;;;;;;;;;;4822433;29;20050;-63
2022/03/02 02:28:25;;;;;;;63.47;40.50;;;;;;;;;;4822437;29;20283;-63
2022/03/02 02:30:53;;;;;;;69.65;41.90;;;;;;;;;;4821906;29;20460;-63
2022/03/02 02:33:19;;;;;;;61.83;38.50;;;;;;;;;;4822434;29;20085;-63
2022/03/02 02:35:45;;;;;;;68.43;41.50;;;;;;;;;;4821879;29;20337;-66
2022/03/02 02:38:11;;;;;;;63.97;39.88;;;;;;;;;;4822026;29;20145;-64
2022/03/02 02:40:37;;;;;;;65.05;40.83;;;;;;;;;;4835690;29;20087;-63
2022/03/02 02:43:05;;;;;;;70.43;41.80;;;;;;;;;;4821495;29;20073;-64
2022/03/02 02:45:32;;;;;;;75.30;43.95;;;;;;;;;;4821934;29;20109;-63
2022/03/02 02:47:58;;;;;;;69.05;42.03;;;;;;;;;;4821583;29;20050;-64
2022/03/02 02:50:31;;;;;;;73.20;43.53;;;;;;;;;;4805207;29;20054;-63
2022/03/02 02:52:59;;;;;;;74.07;44.38;;;;;;;;;;4821961;29;20118;-63
2022/03/02 02:55:26;;;;;;;75.63;42.55;;;;;;;;;;4821382;29;20138;-63
2022/03/02 02:57:53;;;;;;;81.85;43.28;;;;;;;;;;4821268;29;20050;-64
2022/03/02 03:00:20;;;;;;;78.13;43.40;;;;;;;;;;4821621;29;20051;-64
2022/03/02 03:02:47;;;;;;;76.03;45.13;;;;;;;;;;4821380;29;20050;-64
2022/03/02 03:05:16;;;;;;;82.78;46.70;;;;;;;;;;4834924;29;20458;-63
2022/03/02 03:07:42;;;;;;;76.78;43.45;;;;;;;;;;4821701;29;20344;-64
2022/03/02 03:10:08;;;;;;;;;;;;;;;;;;4821813;29;20134;-64
2022/03/02 03:12:35;;;;;;;79.18;44.83;;;;;;;;;;4819787;29;20019;-64
2022/03/02 03:15:03;;;;;;;82.88;47.22;;;;;;;;;;4821201;29;20054;-64
2022/03/02 03:17:29;;;;;;;81.63;46.33;;;;;;;;;;4821174;29;20118;-64
2022/03/02 03:19:55;;;;;;;86.15;45.75;;;;;;;;;;4821179;29;20468;-64
2022/03/02 03:22:21;;;;;;;80.20;44.60;;;;;;;;;;4821494;29;20054;-64
2022/03/02 03:24:47;;;;;;;76.82;45.25;;;;;;;;;;4821368;29;20058;-64
2022/03/02 03:27:13;;;;;;;81.72;48.00;;;;;;;;;;4821188;29;20073;-64
2022/03/02 03:29:39;;;;;;;80.85;46.85;;;;;;;;;;4821298;29;20122;-63
2022/03/02 03:32:06;;;;;;;83.35;47.05;;;;;;;;;;4821202;29;20054;-63
2022/03/02 03:34:32;;;;;;;80.00;44.53;;;;;;;;;;4821124;29;20133;-64
2022/03/02 03:36:58;;;;;;;81.18;45.60;;;;;;;;;;4821421;29;20155;-65
2022/03/02 03:39:24;;;;;;;82.90;46.25;;;;;;;;;;4821042;29;20137;-64
2022/03/02 03:41:51;;;;;;;81.53;46.95;;;;;;;;;;4820902;29;20058;-64
2022/03/02 03:44:17;;;;;;;81.18;45.92;;;;;;;;;;4821255;29;20129;-64
2022/03/02 03:46:43;;;;;;;80.57;46.10;;;;;;;;;;4821091;29;20115;-63
2022/03/02 03:49:09;;;;;;;78.95;45.05;;;;;;;;;;4820796;29;20338;-64
2022/03/02 03:51:35;;;;;;;72.75;44.10;;;;;;;;;;4821590;29;20066;-64
2022/03/02 03:54:01;;;;;;;73.90;43.13;;;;;;;;;;4821050;29;20054;-64
2022/03/02 03:56:28;;;;;;;72.05;43.90;;;;;;;;;;4821028;29;20062;-64
2022/03/02 03:58:54;;;;;;;79.90;46.80;;;;;;;;;;4820062;29;20466;-66
2022/03/02 04:01:21;;;;;;;77.07;46.13;;;;;;;;;;4820132;29;20146;-64
2022/03/02 04:03:47;;;;;;;;;;;;;;;;;;4821630;29;20055;-64
2022/03/02 04:06:13;;;;;;;76.55;47.08;;;;;;;;;;4820880;29;20203;-64
2022/03/02 04:08:39;;;;;;;75.93;48.03;;;;;;;;;;4820997;29;20111;-64
2022/03/02 04:11:05;;;;;;;80.10;46.38;;;;;;;;;;4820863;29;20054;-64
2022/03/02 04:13:31;;;;;;;74.85;45.72;;;;;;;;;;4820324;29;20468;-65
2022/03/02 04:15:57;;;;;;;74.97;44.35;;;;;;;;;;4820900;29;20042;-66
2022/03/02 04:18:23;;;;;;;77.32;46.85;;;;;;;;;;4820789;29;20058;-63
2022/03/02 04:20:50;;;;;;;73.50;43.55;;;;;;;;;;4820702;29;20062;-64
2022/03/02 04:23:16;;;;;;;74.43;45.80;;;;;;;;;;4820717;29;20058;-63
2022/03/02 04:25:42;;;;;;;77.70;45.50;;;;;;;;;;4833474;29;20050;-64
2022/03/02 04:28:08;;;;;;;78.65;46.17;;;;;;;;;;4820893;29;20073;-64
2022/03/02 04:30:34;;;;;;;71.57;44.30;;;;;;;;;;4820793;29;20072;-63
2022/03/02 04:33:00;;;;;;;77.47;45.78;;;;;;;;;;4834669;29;20058;-66
2022/03/02 04:35:26;;;;;;;81.43;45.20;;;;;;;;;;4834502;29;20050;-63
2022/03/02 04:37:52;;;;;;;73.97;43.78;;;;;;;;;;4820726;29;20113;-64
2022/03/02 04:40:19;;;;;;;71.68;43.60;;;;;;;;;;4820389;29;20458;-64
2022/03/02 04:42:45;;;;;;;81.40;47.42;;;;;;;;;;4820742;29;20399;-63
2022/03/02 04:45:11;;;;;;;73.30;44.42;;;;;;;;;;4820434;29;20058;-63
2022/03/02 04:47:37;;;;;;;73.25;45.33;;;;;;;;;;4820599;29;20455;-64
2022/03/02 04:50:04;;;;;;;73.13;44.15;;;;;;;;;;4820505;29;20063;-65
2022/03/02 04:52:30;;;;;;;79.68;45.47;;;;;;;;;;4834105;29;20055;-63
2022/03/02 04:55:05;;;;;;;71.25;44.97;;;;;;;;;;4822936;29;20047;-63
2022/03/02 04:57:32;;;;;;;74.90;45.42;;;;;;;;;;4808477;29;20054;-63
2022/03/02 04:59:58;;;;;;;72.20;44.35;;;;;;;;;;4823398;29;20054;-63
2022/03/02 05:02:24;;;;;;;73.38;44.35;;;;;;;;;;4823514;29;20050;-63
2022/03/02 05:04:50;;;;;;;74.93;46.60;;;;;;;;;;4823646;29;20137;-63
2022/03/02 05:07:17;;;;;;;76.53;45.13;;;;;;;;;;4823315;29;20058;-64
2022/03/02 05:09:43;;;;;;;;;;;;;;;;;;4837507;29;20054;-63
2022/03/02 05:12:10;;;;;;;80.97;47.40;;;;;;;;;;4823144;29;20429;-64
2022/03/02 05:14:36;;;;;;;77.20;46.63;;;;;;;;;;4823169;29;20076;-63
2022/03/02 05:17:02;;;;;;;;;;;;;;;;;;4823814;29;20216;-63
2022/03/02 05:19:28;;;;;;;71.00;45.25;;;;;;;;;;4823031;29;19975;-63
2022/03/02 05:21:54;;;;;;;75.25;47.08;;;;;;;;;;4822999;29;20558;-63
2022/03/02 05:24:20;;;;;;;73.65;45.50;;;;;;;;;;4822967;29;20452;-63
2022/03/02 05:26:46;;;;;;;78.07;45.67;;;;;;;;;;4822959;29;20054;-63
2022/03/02 05:29:13;;;;;;;76.20;45.22;;;;;;;;;;4822954;29;20130;-64
2022/03/02 05:31:39;;;;;;;77.70;45.17;;;;;;;;;;4822838;29;20122;-63
2022/03/02 05:34:05;;;;;;;72.82;46.40;;;;;;;;;;4822723;29;20073;-63
2022/03/02 05:36:31;;;;;;;;;;;;;;;;;;4823566;29;20065;-63
2022/03/02 05:38:57;;;;;;;71.03;43.10;;;;;;;;;;4822326;29;20231;-63
2022/03/02 05:41:23;;;;;;;;;;;;;;;;;;4806853;29;20403;-63
2022/03/02 05:43:52;;;;;;;79.80;48.50;;;;;;;;;;4822987;29;19936;-63
2022/03/02 05:46:18;;;;;;;72.32;45.40;;;;;;;;;;4822688;29;20111;-63
2022/03/02 05:48:44;;;;;;;76.35;45.03;;;;;;;;;;4822677;29;20539;-63
2022/03/02 05:51:10;;;;;;;74.50;45.55;;;;;;;;;;4822494;29;20050;-63
2022/03/02 05:53:36;;;;;;;71.13;44.25;;;;;;;;;;4822666;29;20050;-63
2022/03/02 05:56:03;;;;;;;76.40;44.72;;;;;;;;;;4822730;29;20090;-63
2022/03/02 05:58:29;;;;;;;76.95;45.35;;;;;;;;;;4822574;29;20453;-63
2022/03/02 06:00:56;;;;;;;74.53;43.63;;;;;;;;;;4822587;29;20087;-63
2022/03/02 06:03:23;;;;;;;78.03;46.00;;;;;;;;;;4805836;29;20416;-63
2022/03/02 06:05:49;;;;;;;71.43;45.25;;;;;;;;;;4822068;29;20194;-63
2022/03/02 06:08:15;;;;;;;;;;;;;;;;;;4836570;29;20058;-63
2022/03/02 06:10:41;;;;;;;77.43;47.50;;;;;;;;;;4822263;29;19996;-64
2022/03/02 06:13:07;;;;;;;80.20;47.92;;;;;;;;;;4822243;29;20107;-63
2022/03/02 06:15:33;;;;;;;73.22;44.28;;;;;;;;;;4821841;29;20050;-63
2022/03/02 06:18:03;;;;;;;75.68;45.20;;;;;;;;;;4821614;29;20097;-64
2022/03/02 06:20:29;;;;;;;74.70;45.80;;;;;;;;;;4821281;29;20054;-63
2022/03/02 06:22:56;;;;;;;80.50;45.15;;;;;;;;;;4804470;29;20058;-63
2022/03/02 06:25:22;;;;;;;77.05;44.75;;;;;;;;;;4820443;29;20118;-62
2022/03/02 06:27:48;;;;;;;75.25;44.78;;;;;;;;;;4820332;29;20206;-62
2022/03/02 06:30:14;;;;;;;77.53;44.50;;;;;;;;;;4803365;29;20057;-64
2022/03/02 06:32:40;;;;;;;81.45;47.67;;;;;;;;;;4834252;29;20062;-62
2022/03/02 06:35:07;;;;;;;68.68;43.13;;;;;;;;;;4820237;29;20090;-64
2022/03/02 06:37:33;;;;;;;75.68;45.70;;;;;;;;;;4819635;29;20050;-63
2022/03/02 06:40:10;;;;;;;74.28;45.00;;;;;;;;;;4820183;29;20540;-62
2022/03/02 06:42:36;;;;;;;74.22;44.17;;;;;;;;;;4820091;29;20077;-62
2022/03/02 06:45:09;;;;;;;71.00;42.72;;;;;;;;;;4819968;29;20050;-63
2022/03/02 06:47:42;;;;;;;79.93;48.28;;;;;;;;;;4820126;29;20062;-62
2022/03/02 06:50:09;;;;;;;76.85;46.50;;;;;;;;;;4833887;29;20157;-62
2022/03/02 06:52:44;;;;;;;74.97;47.85;;;;;;;;;;4820211;29;20046;-62
2022/03/02 06:55:17;;;;;;;74.88;45.33;;;;;;;;;;4820100;29;20122;-62
2022/03/02 06:57:51;;;;;;;78.45;46.55;;;;;;;;;;4819799;29;20050;-63
2022/03/02 07:00:17;;;;;;;75.03;47.90;;;;;;;;;;4819822;29;20046;-65
2022/03/02 07:02:48;;;;;;;72.03;45.33;;;;;;;;;;4819651;29;20058;-63
2022/03/02 07:05:14;;;;;;;77.63;45.30;;;;;;;;;;4819483;29;20592;-63
2022/03/02 07:07:40;;;;;;;;;;;;;;;;;;4820587;29;20145;-62
2022/03/02 07:10:07;;;;;;;74.07;46.70;;;;;;;;;;4819776;29;19972;-63
2022/03/02 07:12:34;;;;;;;74.95;46.33;;;;;;;;;;4819804;29;20062;-63
2022/03/02 07:15:00;;;;;;;78.53;46.67;;;;;;;;;;4819483;29;20488;-63
2022/03/02 07:17:27;;;;;;;76.70;45.75;;;;;;;;;;4818617;29;20488;-63
2022/03/02 07:19:53;;;;;;;75.57;45.63;;;;;;;;;;4819927;29;20134;-63
2022/03/02 07:22:22;;;;;;;79.75;44.22;;;;;;;;;;4833522;29;20069;-66
2022/03/02 07:24:52;;;;;;;77.63;47.67;;;;;;;;;;4803469;29;20156;-64
2022/03/02 07:27:19;;;;;;;78.45;46.72;;;;;;;;;;4819638;29;20427;-65
2022/03/02 07:29:47;;;;;;;77.90;47.42;;;;;;;;;;4819408;29;20159;-63
2022/03/02 07:32:14;;;;;;;77.85;47.42;;;;;;;;;;4819493;29;20053;-63
2022/03/02 07:34:44;;;;;;;70.75;45.00;;;;;;;;;;4833181;29;20164;-64
2022/03/02 07:37:12;;;;;;;77.82;47.72;;;;;;;;;;4832321;29;20210;-63
2022/03/02 07:39:39;;;;;;;76.90;46.03;;;;;;;;;;4812634;29;20547;-63
2022/03/02 07:42:05;;;;;;;76.55;46.05;;;;;;;;;;4782902;30;20059;-63
2022/03/02 07:44:31;;;;;;;77.07;44.95;;;;;;;;;;4782542;30;20138;-63
2022/03/02 07:46:57;;;;;;;76.15;44.85;;;;;;;;;;4782523;30;20485;-64
2022/03/02 07:49:23;;;;;;;76.10;44.65;;;;;;;;;;4782465;30;20047;-64
2022/03/02 07:51:51;;;;;;;78.80;45.45;;;;;;;;;;4782484;30;20062;-64
2022/03/02 07:54:18;;;;;;;74.20;45.45;;;;;;;;;;4782377;30;20047;-64
2022/03/02 07:56:45;;;;;;;78.60;45.55;;;;;;;;;;4782782;30;20545;-64
2022/03/02 07:59:11;;;;;;;75.05;44.58;;;;;;;;;;4782667;29;20520;-64
2022/03/02 08:01:38;;;;;;;71.85;45.75;;;;;;;;;;4782717;30;20135;-63
2022/03/02 08:04:05;;;;;;;73.38;43.80;;;;;;;;;;4782742;30;20090;-64
2022/03/02 08:06:33;;;;;;;73.22;43.90;;;;;;;;;;4782579;30;20115;-65
2022/03/02 08:09:00;;;;;;;76.70;44.45;;;;;;;;;;4782515;30;20090;-63
2022/03/02 08:11:26;;;;;;;72.65;43.08;;;;;;;;;;4782585;30;20381;-63
2022/03/02 08:13:52;;;;;;;75.38;46.35;;;;;;;;;;4782567;30;20478;-64
2022/03/02 08:16:18;;;;;;;75.63;44.40;;;;;;;;;;4782423;30;20201;-64
2022/03/02 08:18:44;;;;;;;69.28;43.30;;;;;;;;;;4782507;30;20124;-64
2022/03/02 08:21:12;;;;;;;76.95;45.67;;;;;;;;;;4782375;30;20099;-63
2022/03/02 08:23:39;;;;;;;74.75;45.53;;;;;;;;;;4782392;30;20132;-64
2022/03/02 08:26:05;;;;;;;;;;;;;;;;;;4782945;30;20496;-63
2022/03/02 08:28:33;;;;;;;77.63;47.08;;;;;;;;;;4784510;29;20007;-64
2022/03/02 08:31:00;;;;;;;77.95;45.40;;;;;;;;;;4786011;30;20055;-63
2022/03/02 08:33:29;;;;;;;79.95;43.60;;;;;;;;;;4785531;30;20071;-64
2022/03/02 08:35:56;;;;;;;74.55;43.72;;;;;;;;;;4785829;30;20051;-63
2022/03/02 08:38:22;;;;;;;74.38;43.17;;;;;;;;;;4784198;29;20067;-63
2022/03/02 08:40:48;;;;;;;75.97;42.97;;;;;;;;;;4785836;30;20070;-63
2022/03/02 08:43:15;;;;;;;71.85;42.67;;;;;;;;;;4786370;30;20051;-63
2022/03/02 08:45:48;;;;;;;66.45;41.08;;;;;;;;;;4785836;30;20120;-66
2022/03/02 08:48:15;;;;;;;70.10;40.83;;;;;;;;;;4786012;30;20136;-63
2022/03/02 08:50:41;;;;;;;65.93;39.38;;;;;;;;;;4785767;30;20097;-65
2022/03/02 08:53:07;;;;;;;;;;;;;;;;;;4786427;30;20051;-63
2022/03/02 08:55:33;;;;;;;63.65;39.15;;;;;;;;;;4783955;30;20000;-64
2022/03/02 08:58:01;;;;;;;65.30;39.92;;;;;;;;;;4785929;30;20093;-63
2022/03/02 09:00:27;;;;;;;69.00;39.72;;;;;;;;;;4785581;30;20063;-63
2022/03/02 09:02:53;;;;;;;66.10;39.13;;;;;;;;;;4786114;30;20091;-65
2022/03/02 09:05:19;;;;;;;;;;;;;;;;;;4785846;30;20051;-64
2022/03/02 09:07:46;;;;;;;64.03;38.40;;;;;;;;;;4785710;30;19934;-64
2022/03/02 09:10:12;;;;;;;64.82;38.50;;;;;;;;;;4769501;30;20051;-64
2022/03/02 09:12:41;;;;;;;60.25;36.40;;;;;;;;;;4785445;30;20051;-64
2022/03/02 09:15:08;;;;;;;63.40;38.75;;;;;;;;;;4785228;30;20348;-63
2022/03/02 09:17:35;;;;;;;;;;;;;;;;;;4785229;30;20058;-64
2022/03/02 09:20:02;;;;;;;64.88;38.05;;;;;;;;;;4785009;30;20017;-64
2022/03/02 09:22:29;;;;;;;66.55;40.33;;;;;;;;;;4785206;30;20067;-64
2022/03/02 09:24:56;;;;;;;70.20;36.53;;;;;;;;;;4785307;30;20129;-65
2022/03/02 09:27:26;;;;;;;69.00;37.47;;;;;;;;;;4785470;30;20058;-64
2022/03/02 09:29:53;;;;;;;59.85;36.38;;;;;;;;;;4814115;29;20051;-64
2022/03/02 09:32:19;;;;;;;63.05;35.92;;;;;;;;;;4784931;30;20055;-64
2022/03/02 09:34:48;;;;;;;62.80;36.88;;;;;;;;;;4784840;30;20098;-66
2022/03/02 09:37:15;;;;;;;67.55;38.42;;;;;;;;;;4784842;30;20067;-65
2022/03/02 09:39:41;;;;;;;59.72;36.58;;;;;;;;;;4818039;29;20162;-66
2022/03/02 09:42:11;;;;;;;59.40;35.10;;;;;;;;;;4820913;29;20063;-66
2022/03/02 09:44:43;;;;;;;61.35;36.72;;;;;;;;;;4820520;29;20437;-65
2022/03/02 09:47:10;;;;;;;62.65;36.17;;;;;;;;;;4820905;29;20050;-65
2022/03/02 09:49:37;;;;;;;65.13;37.28;;;;;;;;;;4820943;29;20054;-66
2022/03/02 09:52:08;;;;;;;60.10;36.50;;;;;;;;;;4820857;29;20051;-63
2022/03/02 09:54:37;;;;;;;65.40;36.90;;;;;;;;;;4820788;29;20070;-64
2022/03/02 09:57:03;;;;;;;61.80;37.42;;;;;;;;;;4820213;29;20140;-63
2022/03/02 09:59:32;;;;;;;62.42;35.85;;;;;;;;;;4820686;29;20160;-62
2022/03/02 10:02:00;;;;;;;57.90;35.17;;;;;;;;;;4820867;29;20046;-62
2022/03/02 10:04:29;;;;;;;57.95;34.97;;;;;;;;;;4835094;29;20058;-64
2022/03/02 10:07:45;;;;;;;52.30;32.65;;;;;;;;;;4820860;29;20089;-63
2022/03/02 10:09:50;;;;;;;58.72;32.10;;;;;;;;;;4813465;29;20176;-63
2022/03/02 10:12:16;;;;;;;56.20;33.17;;;;;;;;;;4804209;29;20097;-63
2022/03/02 10:14:42;;;;;;;55.10;32.47;;;;;;;;;;4820406;29;20466;-65
2022/03/02 10:17:08;;;;;;;;;;;;;;;;;;4821070;29;20046;-63
2022/03/02 10:19:36;;;;;;;51.92;31.85;;;;;;;;;;4820749;29;20027;-65
2022/03/02 10:22:34;;;;;;;56.80;32.60;;;;;;;;;;4820414;29;20050;-65
2022/03/02 10:25:06;;;;;;;55.03;32.10;;;;;;;;;;4779771;29;20074;-65
2022/03/02 10:27:35;;;;;;;53.85;32.17;;;;;;;;;;4820487;29;20076;-64
2022/03/02 10:30:08;;;;;;;57.78;32.97;;;;;;;;;;4804104;29;20068;-64
2022/03/02 10:32:35;;;;;;;51.92;31.17;;;;;;;;;;4820306;29;20050;-65
2022/03/02 10:35:12;;;;;;;51.15;31.17;;;;;;;;;;4820608;29;20149;-65
2022/03/02 10:37:40;;;;;;;55.20;30.80;;;;;;;;;;4820142;29;20125;-65
2022/03/02 10:40:17;;;;;;;54.25;32.03;;;;;;;;;;4834018;29;20061;-64
2022/03/02 10:42:45;;;;;;;50.67;29.90;;;;;;;;;;4820408;29;20073;-65
2022/03/02 10:45:17;;;;;;;54.10;32.30;;;;;;;;;;4820345;29;20079;-65
2022/03/02 10:47:43;;;;;;;54.85;31.50;;;;;;;;;;4821207;29;20061;-65
2022/03/02 10:50:09;;;;;;;55.83;31.63;;;;;;;;;;4820250;29;20129;-63
2022/03/02 10:52:36;;;;;;;54.75;31.25;;;;;;;;;;4819379;29;20050;-65
2022/03/02 10:55:05;;;;;;;56.17;32.50;;;;;;;;;;4803427;29;20195;-63
2022/03/02 10:57:33;;;;;;;50.92;30.15;;;;;;;;;;4820318;29;20440;-63
2022/03/02 11:00:01;;;;;;;55.95;30.00;;;;;;;;;;4820211;29;20067;-65
2022/03/02 11:02:29;;;;;;;49.72;29.45;;;;;;;;;;4820118;29;20097;-64
2022/03/02 11:04:55;;;;;;;49.65;28.75;;;;;;;;;;4820242;29;20556;-63
2022/03/02 11:07:23;;;;;;;53.30;31.05;;;;;;;;;;4819097;29;20054;-64
2022/03/02 11:09:49;;;;;;;49.13;29.08;;;;;;;;;;4819484;29;20195;-66
2022/03/02 11:12:20;;;;;;;51.33;29.98;;;;;;;;;;4819559;29;20118;-63
2022/03/02 11:15:03;;;;;;;49.72;30.23;;;;;;;;;;4819910;29;20119;-64
2022/03/02 11:17:30;;;;;;;53.72;30.80;;;;;;;;;;4820022;29;20069;-64
2022/03/02 11:19:57;;;;;;;54.08;30.05;;;;;;;;;;4819894;29;20113;-64
2022/03/02 11:22:24;;;;;;;51.60;28.88;;;;;;;;;;4819661;29;20054;-66
2022/03/02 11:24:57;;;;;;;49.38;27.38;;;;;;;;;;4819689;29;20180;-64
2022/03/02 11:27:40;;;;;;;51.03;25.80;;;;;;;;;;4819673;29;20202;-64
2022/03/02 11:30:08;;;;;;;46.90;27.13;;;;;;;;;;4819570;29;20154;-63
2022/03/02 11:32:35;;;;;;;45.35;25.17;;;;;;;;;;4819544;29;20054;-65
2022/03/02 11:35:04;;;;;;;45.53;25.55;;;;;;;;;;4819341;29;20047;-65
2022/03/02 11:37:34;;;;;;;44.63;24.80;;;;;;;;;;4819272;29;20455;-65
2022/03/02 11:40:01;;;;;;;43.08;25.75;;;;;;;;;;4819460;29;20440;-66
2022/03/02 11:42:31;;;;;;;42.92;23.58;;;;;;;;;;4819445;29;20058;-65
2022/03/02 11:44:59;;;;;;;44.00;24.77;;;;;;;;;;4820252;29;20130;-66
2022/03/02 11:47:32;;;;;;;42.05;25.05;;;;;;;;;;4819754;29;20089;-63
2022/03/02 11:49:58;;;;;;;41.72;23.90;;;;;;;;;;4833438;29;20069;-66
2022/03/02 11:52:25;;;;;;;40.15;24.25;;;;;;;;;;4819990;29;20066;-65
2022/03/02 11:54:52;;;;;;;46.20;25.98;;;;;;;;;;4820005;29;20058;-64
2022/03/02 11:57:21;;;;;;;42.33;25.30;;;;;;;;;;4802658;29;20054;-63
2022/03/02 11:59:48;;;;;;;42.92;25.35;;;;;;;;;;4819927;29;20117;-63
2022/03/02 12:02:13;;;;;;;40.47;25.25;;;;;;;;;;4802946;29;20074;-66
2022/03/02 12:04:40;;;;;;;43.70;26.33;;;;;;;;;;4822863;29;20050;-64
2022/03/02 12:07:08;;;;;;;48.70;26.63;;;;;;;;;;4823307;29;20360;-64
2022/03/02 12:09:35;;;;;;;39.72;24.25;;;;;;;;;;4823340;29;20057;-64
2022/03/02 12:12:16;;;;;;;40.78;23.00;;;;;;;;;;4822997;29;20073;-65
2022/03/02 12:14:45;;;;;;;39.22;23.10;;;;;;;;;;4823801;29;20057;-63
2022/03/02 12:17:37;;;;;;;41.30;24.02;;;;;;;;;;4824509;29;20058;-65
2022/03/02 12:20:05;;;;;;;39.53;23.40;;;;;;;;;;4820631;29;20118;-64
2022/03/02 12:22:50;;;;;;;45.17;24.23;;;;;;;;;;4824865;29;20047;-65
2022/03/02 12:25:17;;;;;;;39.05;22.42;;;;;;;;;;4824853;29;20138;-65
2022/03/02 12:27:49;;;;;;;39.30;23.17;;;;;;;;;;4824059;29;20119;-65
2022/03/02 12:30:16;;;;;;;39.65;22.92;;;;;;;;;;4823876;29;20055;-63
2022/03/02 12:32:42;;;;;;;38.92;22.73;;;;;;;;;;4824070;29;20111;-64
2022/03/02 12:35:09;;;;;;;38.10;22.70;;;;;;;;;;4822867;29;20468;-63
2022/03/02 12:37:36;;;;;;;39.33;22.33;;;;;;;;;;4823217;29;20622;-66
2022/03/02 12:40:09;;;;;;;43.38;21.38;;;;;;;;;;4823595;29;20134;-65
2022/03/02 12:42:37;;;;;;;38.25;22.58;;;;;;;;;;4823486;29;20081;-66
2022/03/02 12:45:03;;;;;;;37.20;21.77;;;;;;;;;;4837609;29;20074;-63
2022/03/02 12:47:30;;;;;;;41.30;22.98;;;;;;;;;;4823381;29;20157;-65
2022/03/02 12:49:57;;;;;;;41.03;23.15;;;;;;;;;;4823687;29;20066;-65
2022/03/02 12:52:25;;;;;;;40.58;23.17;;;;;;;;;;4823077;29;20061;-66
2022/03/02 12:54:52;;;;;;;41.20;23.67;;;;;;;;;;4823522;29;20051;-64
2022/03/02 12:57:20;;;;;;;38.55;22.67;;;;;;;;;;4822628;29;20058;-65
2022/03/02 12:59:46;;;;;;;40.60;24.10;;;;;;;;;;4821520;29;20080;-63
2022/03/02 13:02:16;;;;;;;43.08;24.48;;;;;;;;;;4821366;29;20144;-63
2022/03/02 13:05:01;;;;;;;42.28;25.30;;;;;;;;;;4821443;29;20077;-63
2022/03/02 13:07:36;;;;;;;41.65;24.65;;;;;;;;;;4821408;29;20054;-65
2022/03/02 13:10:12;;;;;;;40.83;24.90;;;;;;;;;;4821064;29;20058;-64
2022/03/02 13:12:42;;;;;;;40.38;24.52;;;;;;;;;;4821359;29;20058;-64
2022/03/02 13:15:27;;;;;;;43.50;25.13;;;;;;;;;;4819908;29;20137;-64
2022/03/02 13:18:13;;;;;;;42.72;25.45;;;;;;;;;;4820772;29;20173;-63
2022/03/02 13:20:40;;;;;;;43.03;25.70;;;;;;;;;;4820561;29;20058;-64
2022/03/02 13:23:27;;;;;;;40.45;25.52;;;;;;;;;;4820921;29;20129;-66
2022/03/02 13:25:59;;;;;;;42.55;26.20;;;;;;;;;;4821273;29;20389;-64
2022/03/02 13:28:29;;;;;;;45.17;26.58;;;;;;;;;;4820616;29;20352;-64
2022/03/02 13:31:14;;;;;;;44.13;25.67;;;;;;;;;;4821322;29;20133;-64
2022/03/02 13:33:52;;;;;;;42.35;25.42;;;;;;;;;;4821203;29;20074;-63
2022/03/02 13:36:35;;;;;;;44.67;26.60;;;;;;;;;;4821197;29;20073;-63
2022/03/02 13:39:11;;;;;;;42.78;25.60;;;;;;;;;;4821249;29;20070;-64
2022/03/02 13:41:47;;;;;;;43.20;26.20;;;;;;;;;;4820772;29;20455;-66
2022/03/02 13:44:20;;;;;;;43.00;26.08;;;;;;;;;;4821160;29;20097;-65
2022/03/02 13:47:06;;;;;;;45.42;26.30;;;;;;;;;;4834840;29;20055;-67
2022/03/02 13:52:14;;;;;;;41.33;25.95;;;;;;;;;;4820911;29;20054;-65
2022/03/02 13:54:40;;;;;;;40.33;24.33;;;;;;;;;;4820933;29;20145;-64
2022/03/02 13:57:06;;;;;;;43.00;25.23;;;;;;;;;;4804479;29;20066;-67
2022/03/02 13:59:32;;;;;;;45.95;26.10;;;;;;;;;;4820593;29;20047;-66
2022/03/02 14:01:58;;;;;;;41.25;25.70;;;;;;;;;;4820735;29;20090;-66
2022/03/02 14:04:25;;;;;;;41.47;25.45;;;;;;;;;;4820721;29;20059;-65
2022/03/02 14:06:56;;;;;;;43.63;24.80;;;;;;;;;;4820584;29;20058;-65
2022/03/02 14:09:22;;;;;;;39.58;24.63;;;;;;;;;;4821220;29;20100;-66
2022/03/02 14:11:48;;;;;;;;;;;;;;;;;;4821632;29;20106;-66
2022/03/02 14:14:17;;;;;;;41.20;24.73;;;;;;;;;;4820893;29;19924;-65
2022/03/02 14:16:53;;;;;;;46.85;26.90;;;;;;;;;;4820525;29;20065;-65
2022/03/02 14:19:19;;;;;;;42.63;26.25;;;;;;;;;;4820459;29;20058;-68
2022/03/02 14:21:45;;;;;;;;;;;;;;;;;;4820732;29;20046;-69
2022/03/02 14:24:13;;;;;;;43.95;25.95;;;;;;;;;;4803823;29;19976;-67
2022/03/02 14:26:50;;;;;;;46.00;25.48;;;;;;;;;;4834235;29;20234;-64
2022/03/02 14:29:16;;;;;;;42.22;25.88;;;;;;;;;;4819818;29;20474;-65
2022/03/02 14:31:55;;;;;;;42.45;25.52;;;;;;;;;;4803865;29;20054;-65